sensor_id;sensor_type;location;lat;lon;timestamp;P1;durP1;ratioP1;P2;durP2;ratioP2
61978;SDS011;47938;48.176;16.414;2023-01-19T00:00:01;5.63;;;4.63;;
61978;SDS011;47938;48.176;16.414;2023-01-19T00:02:27;5.88;;;4.22;;
61978;SDS011;47938;48.176;16.414;2023-01-19T00:04:53;5.13;;;4.10;;
61978;SDS011;47938;48.176;16.414;2023-01-19T00:07:19;5.18;;;3.72;;
61978;SDS011;47938;48.176;16.414;2023-01-19T00:09:44;9.25;;;4.20;;
61978;SDS011;47938;48.176;16.414;2023-01-19T00:12:10;7.30;;;4.25;;
61978;SDS011;47938;48.176;16.414;2023-01-19T00:14:36;4.78;;;3.63;;
61978;SDS011;47938;48.176;16.414;2023-01-19T00:17:01;6.00;;;4.40;;
61978;SDS011;47938;48.176;16.414;2023-01-19T00:19:27;5.35;;;4.13;;
61978;SDS011;47938;48.176;16.414;2023-01-19T00:21:53;5.63;;;4.10;;
61978;SDS011;47938;48.176;16.414;2023-01-19T00:24:19;6.38;;;4.13;;
61978;SDS011;47938;48.176;16.414;2023-01-19T00:26:45;7.93;;;4.45;;
61978;SDS011;47938;48.176;16.414;2023-01-19T00:29:11;8.18;;;4.60;;
61978;SDS011;47938;48.176;16.414;2023-01-19T00:31:38;6.68;;;4.63;;
61978;SDS011;47938;48.176;16.414;2023-01-19T00:34:04;6.55;;;4.57;;
61978;SDS011;47938;48.176;16.414;2023-01-19T00:36:30;6.32;;;5.07;;
61978;SDS011;47938;48.176;16.414;2023-01-19T00:38:56;5.18;;;4.18;;
61978;SDS011;47938;48.176;16.414;2023-01-19T00:41:22;6.25;;;4.20;;
61978;SDS011;47938;48.176;16.414;2023-01-19T00:43:48;7.10;;;4.57;;
61978;SDS011;47938;48.176;16.414;2023-01-19T00:46:13;11.93;;;4.85;;
61978;SDS011;47938;48.176;16.414;2023-01-19T00:48:39;5.88;;;4.22;;
61978;SDS011;47938;48.176;16.414;2023-01-19T00:51:04;8.68;;;4.78;;
61978;SDS011;47938;48.176;16.414;2023-01-19T00:53:30;7.32;;;5.03;;
61978;SDS011;47938;48.176;16.414;2023-01-19T00:55:56;6.18;;;4.68;;
61978;SDS011;47938;48.176;16.414;2023-01-19T00:58:21;10.90;;;5.18;;
61978;SDS011;47938;48.176;16.414;2023-01-19T01:00:47;6.03;;;4.72;;
61978;SDS011;47938;48.176;16.414;2023-01-19T01:03:13;5.38;;;4.03;;
61978;SDS011;47938;48.176;16.414;2023-01-19T01:05:39;6.15;;;4.95;;
61978;SDS011;47938;48.176;16.414;2023-01-19T01:08:05;5.55;;;4.68;;
61978;SDS011;47938;48.176;16.414;2023-01-19T01:10:31;8.18;;;4.82;;
61978;SDS011;47938;48.176;16.414;2023-01-19T01:12:56;6.35;;;4.72;;
61978;SDS011;47938;48.176;16.414;2023-01-19T01:15:22;12.98;;;5.13;;
61978;SDS011;47938;48.176;16.414;2023-01-19T01:17:47;5.75;;;4.57;;
61978;SDS011;47938;48.176;16.414;2023-01-19T01:20:14;7.15;;;5.05;;
61978;SDS011;47938;48.176;16.414;2023-01-19T01:22:42;6.13;;;4.50;;
61978;SDS011;47938;48.176;16.414;2023-01-19T01:25:13;5.22;;;4.13;;
61978;SDS011;47938;48.176;16.414;2023-01-19T01:27:41;7.40;;;4.45;;
61978;SDS011;47938;48.176;16.414;2023-01-19T01:30:07;7.13;;;5.10;;
61978;SDS011;47938;48.176;16.414;2023-01-19T01:32:34;6.32;;;4.97;;
61978;SDS011;47938;48.176;16.414;2023-01-19T01:35:00;6.30;;;4.85;;
61978;SDS011;47938;48.176;16.414;2023-01-19T01:37:26;5.32;;;4.55;;
61978;SDS011;47938;48.176;16.414;2023-01-19T01:39:51;6.32;;;4.97;;
61978;SDS011;47938;48.176;16.414;2023-01-19T01:42:18;9.38;;;4.53;;
61978;SDS011;47938;48.176;16.414;2023-01-19T01:44:54;8.70;;;5.05;;
61978;SDS011;47938;48.176;16.414;2023-01-19T01:47:31;6.78;;;4.95;;
61978;SDS011;47938;48.176;16.414;2023-01-19T01:50:11;5.50;;;4.20;;
61978;SDS011;47938;48.176;16.414;2023-01-19T01:53:05;6.30;;;4.85;;
61978;SDS011;47938;48.176;16.414;2023-01-19T01:55:36;6.30;;;4.93;;
61978;SDS011;47938;48.176;16.414;2023-01-19T01:58:11;5.35;;;4.32;;
61978;SDS011;47938;48.176;16.414;2023-01-19T02:00:38;9.13;;;4.97;;
61978;SDS011;47938;48.176;16.414;2023-01-19T02:03:04;5.97;;;4.65;;
61978;SDS011;47938;48.176;16.414;2023-01-19T02:05:33;5.13;;;4.40;;
61978;SDS011;47938;48.176;16.414;2023-01-19T02:08:43;5.60;;;4.30;;
61978;SDS011;47938;48.176;16.414;2023-01-19T02:10:52;9.77;;;4.65;;
61978;SDS011;47938;48.176;16.414;2023-01-19T02:13:19;5.75;;;4.68;;
61978;SDS011;47938;48.176;16.414;2023-01-19T02:15:53;7.97;;;4.80;;
61978;SDS011;47938;48.176;16.414;2023-01-19T02:18:26;11.13;;;5.32;;
61978;SDS011;47938;48.176;16.414;2023-01-19T02:20:55;6.13;;;4.38;;
61978;SDS011;47938;48.176;16.414;2023-01-19T02:23:47;6.95;;;4.72;;
61978;SDS011;47938;48.176;16.414;2023-01-19T02:26:23;5.35;;;4.50;;
61978;SDS011;47938;48.176;16.414;2023-01-19T02:28:57;5.78;;;4.38;;
61978;SDS011;47938;48.176;16.414;2023-01-19T02:31:25;6.60;;;4.60;;
61978;SDS011;47938;48.176;16.414;2023-01-19T02:33:53;7.18;;;4.90;;
61978;SDS011;47938;48.176;16.414;2023-01-19T02:36:23;6.28;;;4.28;;
61978;SDS011;47938;48.176;16.414;2023-01-19T02:38:52;6.30;;;5.03;;
61978;SDS011;47938;48.176;16.414;2023-01-19T02:41:21;5.90;;;4.45;;
61978;SDS011;47938;48.176;16.414;2023-01-19T02:46:18;8.90;;;4.65;;
61978;SDS011;47938;48.176;16.414;2023-01-19T02:48:43;9.45;;;5.00;;
61978;SDS011;47938;48.176;16.414;2023-01-19T02:51:22;6.32;;;4.78;;
61978;SDS011;47938;48.176;16.414;2023-01-19T02:53:52;7.80;;;5.20;;
61978;SDS011;47938;48.176;16.414;2023-01-19T02:56:35;6.22;;;4.88;;
61978;SDS011;47938;48.176;16.414;2023-01-19T03:08:21;5.03;;;4.32;;
61978;SDS011;47938;48.176;16.414;2023-01-19T03:13:38;6.50;;;4.57;;
61978;SDS011;47938;48.176;16.414;2023-01-19T03:16:13;9.45;;;5.10;;
61978;SDS011;47938;48.176;16.414;2023-01-19T03:19:03;6.97;;;5.20;;
61978;SDS011;47938;48.176;16.414;2023-01-19T03:21:40;5.72;;;4.28;;
61978;SDS011;47938;48.176;16.414;2023-01-19T03:24:09;8.38;;;4.93;;
61978;SDS011;47938;48.176;16.414;2023-01-19T03:26:41;5.85;;;4.57;;
61978;SDS011;47938;48.176;16.414;2023-01-19T03:29:11;6.30;;;4.53;;
61978;SDS011;47938;48.176;16.414;2023-01-19T03:31:39;8.05;;;4.35;;
61978;SDS011;47938;48.176;16.414;2023-01-19T03:34:08;5.25;;;4.45;;
61978;SDS011;47938;48.176;16.414;2023-01-19T03:36:43;6.10;;;4.60;;
61978;SDS011;47938;48.176;16.414;2023-01-19T03:39:13;6.18;;;4.60;;
61978;SDS011;47938;48.176;16.414;2023-01-19T03:41:46;10.05;;;4.85;;
61978;SDS011;47938;48.176;16.414;2023-01-19T03:44:14;6.95;;;4.57;;
61978;SDS011;47938;48.176;16.414;2023-01-19T03:46:40;6.10;;;4.20;;
61978;SDS011;47938;48.176;16.414;2023-01-19T03:49:07;5.70;;;4.50;;
61978;SDS011;47938;48.176;16.414;2023-01-19T03:51:37;5.93;;;4.03;;
61978;SDS011;47938;48.176;16.414;2023-01-19T03:54:04;4.65;;;4.03;;
61978;SDS011;47938;48.176;16.414;2023-01-19T03:56:30;6.13;;;4.43;;
61978;SDS011;47938;48.176;16.414;2023-01-19T03:58:56;5.80;;;4.82;;
61978;SDS011;47938;48.176;16.414;2023-01-19T04:01:22;7.53;;;4.25;;
61978;SDS011;47938;48.176;16.414;2023-01-19T04:03:48;6.40;;;4.32;;
61978;SDS011;47938;48.176;16.414;2023-01-19T04:06:14;6.13;;;4.75;;
61978;SDS011;47938;48.176;16.414;2023-01-19T04:08:39;7.18;;;4.80;;
61978;SDS011;47938;48.176;16.414;2023-01-19T04:11:05;6.32;;;4.82;;
61978;SDS011;47938;48.176;16.414;2023-01-19T04:13:31;6.20;;;4.40;;
61978;SDS011;47938;48.176;16.414;2023-01-19T04:16:00;7.65;;;5.38;;
61978;SDS011;47938;48.176;16.414;2023-01-19T04:18:27;5.72;;;4.63;;
61978;SDS011;47938;48.176;16.414;2023-01-19T04:20:53;8.15;;;5.03;;
61978;SDS011;47938;48.176;16.414;2023-01-19T04:23:19;7.25;;;5.07;;
61978;SDS011;47938;48.176;16.414;2023-01-19T04:25:45;6.20;;;4.75;;
61978;SDS011;47938;48.176;16.414;2023-01-19T04:28:11;6.28;;;4.88;;
61978;SDS011;47938;48.176;16.414;2023-01-19T04:30:36;6.75;;;5.10;;
61978;SDS011;47938;48.176;16.414;2023-01-19T04:33:02;9.13;;;5.85;;
61978;SDS011;47938;48.176;16.414;2023-01-19T04:35:28;5.65;;;4.75;;
61978;SDS011;47938;48.176;16.414;2023-01-19T04:37:53;6.65;;;5.35;;
61978;SDS011;47938;48.176;16.414;2023-01-19T04:40:19;7.30;;;5.75;;
61978;SDS011;47938;48.176;16.414;2023-01-19T04:42:45;8.60;;;5.93;;
61978;SDS011;47938;48.176;16.414;2023-01-19T04:45:11;8.45;;;6.60;;
61978;SDS011;47938;48.176;16.414;2023-01-19T04:47:37;8.77;;;5.93;;
61978;SDS011;47938;48.176;16.414;2023-01-19T04:50:03;7.57;;;5.85;;
61978;SDS011;47938;48.176;16.414;2023-01-19T04:52:31;8.60;;;5.85;;
61978;SDS011;47938;48.176;16.414;2023-01-19T04:54:57;8.00;;;5.63;;
61978;SDS011;47938;48.176;16.414;2023-01-19T04:57:22;8.68;;;6.28;;
61978;SDS011;47938;48.176;16.414;2023-01-19T04:59:48;7.13;;;5.68;;
61978;SDS011;47938;48.176;16.414;2023-01-19T05:02:13;9.05;;;5.22;;
61978;SDS011;47938;48.176;16.414;2023-01-19T05:04:39;7.15;;;5.80;;
61978;SDS011;47938;48.176;16.414;2023-01-19T05:07:05;11.07;;;6.10;;
61978;SDS011;47938;48.176;16.414;2023-01-19T05:09:30;7.93;;;5.95;;
61978;SDS011;47938;48.176;16.414;2023-01-19T05:11:56;7.03;;;5.88;;
61978;SDS011;47938;48.176;16.414;2023-01-19T05:14:21;7.85;;;5.95;;
61978;SDS011;47938;48.176;16.414;2023-01-19T05:16:47;10.90;;;6.65;;
61978;SDS011;47938;48.176;16.414;2023-01-19T05:19:12;9.85;;;6.32;;
61978;SDS011;47938;48.176;16.414;2023-01-19T05:21:38;8.48;;;6.07;;
61978;SDS011;47938;48.176;16.414;2023-01-19T05:24:04;8.13;;;6.38;;
61978;SDS011;47938;48.176;16.414;2023-01-19T05:26:30;9.20;;;6.30;;
61978;SDS011;47938;48.176;16.414;2023-01-19T05:28:55;10.45;;;6.18;;
61978;SDS011;47938;48.176;16.414;2023-01-19T05:31:21;10.35;;;6.78;;
61978;SDS011;47938;48.176;16.414;2023-01-19T05:33:46;9.18;;;6.55;;
61978;SDS011;47938;48.176;16.414;2023-01-19T05:36:12;8.25;;;6.20;;
61978;SDS011;47938;48.176;16.414;2023-01-19T05:38:38;10.07;;;7.22;;
61978;SDS011;47938;48.176;16.414;2023-01-19T05:41:03;8.30;;;6.80;;
61978;SDS011;47938;48.176;16.414;2023-01-19T05:43:29;9.63;;;6.38;;
61978;SDS011;47938;48.176;16.414;2023-01-19T05:45:55;8.80;;;6.65;;
61978;SDS011;47938;48.176;16.414;2023-01-19T05:48:20;9.15;;;7.07;;
61978;SDS011;47938;48.176;16.414;2023-01-19T05:50:46;9.35;;;7.30;;
61978;SDS011;47938;48.176;16.414;2023-01-19T05:53:11;16.83;;;7.47;;
61978;SDS011;47938;48.176;16.414;2023-01-19T05:55:37;8.40;;;6.57;;
61978;SDS011;47938;48.176;16.414;2023-01-19T05:58:03;12.15;;;6.18;;
61978;SDS011;47938;48.176;16.414;2023-01-19T06:00:28;9.50;;;6.78;;
61978;SDS011;47938;48.176;16.414;2023-01-19T06:02:54;10.55;;;6.95;;
61978;SDS011;47938;48.176;16.414;2023-01-19T06:05:19;9.38;;;5.93;;
61978;SDS011;47938;48.176;16.414;2023-01-19T06:07:45;9.45;;;6.85;;
61978;SDS011;47938;48.176;16.414;2023-01-19T06:10:11;9.20;;;6.45;;
61978;SDS011;47938;48.176;16.414;2023-01-19T06:12:39;7.70;;;6.15;;
61978;SDS011;47938;48.176;16.414;2023-01-19T06:15:05;12.48;;;7.30;;
61978;SDS011;47938;48.176;16.414;2023-01-19T06:17:31;13.55;;;6.95;;
61978;SDS011;47938;48.176;16.414;2023-01-19T06:19:57;11.15;;;6.82;;
61978;SDS011;47938;48.176;16.414;2023-01-19T06:22:23;10.77;;;6.63;;
61978;SDS011;47938;48.176;16.414;2023-01-19T06:24:49;11.50;;;6.70;;
61978;SDS011;47938;48.176;16.414;2023-01-19T06:27:14;9.50;;;6.50;;
61978;SDS011;47938;48.176;16.414;2023-01-19T06:29:40;7.70;;;6.30;;
61978;SDS011;47938;48.176;16.414;2023-01-19T06:32:06;18.27;;;7.53;;
61978;SDS011;47938;48.176;16.414;2023-01-19T06:34:31;11.13;;;6.90;;
61978;SDS011;47938;48.176;16.414;2023-01-19T06:36:57;8.98;;;7.18;;
61978;SDS011;47938;48.176;16.414;2023-01-19T06:39:23;8.60;;;6.50;;
61978;SDS011;47938;48.176;16.414;2023-01-19T06:41:48;10.30;;;7.05;;
61978;SDS011;47938;48.176;16.414;2023-01-19T06:44:14;11.93;;;7.68;;
61978;SDS011;47938;48.176;16.414;2023-01-19T06:46:40;12.18;;;7.07;;
61978;SDS011;47938;48.176;16.414;2023-01-19T06:49:05;9.20;;;7.07;;
61978;SDS011;47938;48.176;16.414;2023-01-19T06:51:31;9.13;;;6.65;;
61978;SDS011;47938;48.176;16.414;2023-01-19T06:53:57;7.90;;;5.93;;
61978;SDS011;47938;48.176;16.414;2023-01-19T06:56:22;9.02;;;6.35;;
61978;SDS011;47938;48.176;16.414;2023-01-19T06:58:48;10.00;;;6.55;;
61978;SDS011;47938;48.176;16.414;2023-01-19T07:01:13;8.63;;;5.45;;
61978;SDS011;47938;48.176;16.414;2023-01-19T07:03:39;8.40;;;6.88;;
61978;SDS011;47938;48.176;16.414;2023-01-19T07:06:05;11.05;;;7.13;;
61978;SDS011;47938;48.176;16.414;2023-01-19T07:08:31;13.07;;;6.68;;
61978;SDS011;47938;48.176;16.414;2023-01-19T07:11:03;10.18;;;5.95;;
61978;SDS011;47938;48.176;16.414;2023-01-19T07:13:33;10.70;;;5.95;;
61978;SDS011;47938;48.176;16.414;2023-01-19T07:16:07;10.82;;;6.28;;
61978;SDS011;47938;48.176;16.414;2023-01-19T07:18:35;8.50;;;5.38;;
61978;SDS011;47938;48.176;16.414;2023-01-19T07:21:01;6.60;;;5.57;;
61978;SDS011;47938;48.176;16.414;2023-01-19T07:23:28;12.02;;;5.82;;
61978;SDS011;47938;48.176;16.414;2023-01-19T07:25:53;6.60;;;5.00;;
61978;SDS011;47938;48.176;16.414;2023-01-19T07:28:19;5.85;;;4.43;;
61978;SDS011;47938;48.176;16.414;2023-01-19T07:30:44;6.88;;;4.72;;
61978;SDS011;47938;48.176;16.414;2023-01-19T07:33:10;9.05;;;4.78;;
61978;SDS011;47938;48.176;16.414;2023-01-19T07:35:36;5.40;;;4.18;;
61978;SDS011;47938;48.176;16.414;2023-01-19T07:38:02;7.80;;;4.45;;
61978;SDS011;47938;48.176;16.414;2023-01-19T07:40:28;12.05;;;5.15;;
61978;SDS011;47938;48.176;16.414;2023-01-19T07:42:54;6.00;;;4.70;;
61978;SDS011;47938;48.176;16.414;2023-01-19T07:45:19;12.77;;;5.07;;
61978;SDS011;47938;48.176;16.414;2023-01-19T07:47:46;8.65;;;5.63;;
61978;SDS011;47938;48.176;16.414;2023-01-19T07:50:13;6.00;;;4.32;;
61978;SDS011;47938;48.176;16.414;2023-01-19T07:52:39;7.20;;;4.90;;
61978;SDS011;47938;48.176;16.414;2023-01-19T07:55:06;7.57;;;5.18;;
61978;SDS011;47938;48.176;16.414;2023-01-19T07:57:32;7.82;;;5.70;;
61978;SDS011;47938;48.176;16.414;2023-01-19T07:59:58;17.10;;;5.47;;
61978;SDS011;47938;48.176;16.414;2023-01-19T08:02:24;10.00;;;5.45;;
61978;SDS011;47938;48.176;16.414;2023-01-19T08:04:49;7.35;;;4.68;;
61978;SDS011;47938;48.176;16.414;2023-01-19T08:07:15;5.10;;;4.07;;
61978;SDS011;47938;48.176;16.414;2023-01-19T08:09:40;7.05;;;5.07;;
61978;SDS011;47938;48.176;16.414;2023-01-19T08:12:06;8.90;;;5.93;;
61978;SDS011;47938;48.176;16.414;2023-01-19T08:14:32;7.97;;;5.70;;
61978;SDS011;47938;48.176;16.414;2023-01-19T08:16:58;11.35;;;5.13;;
61978;SDS011;47938;48.176;16.414;2023-01-19T08:19:27;7.57;;;5.07;;
61978;SDS011;47938;48.176;16.414;2023-01-19T08:21:53;7.80;;;4.88;;
61978;SDS011;47938;48.176;16.414;2023-01-19T08:24:19;7.28;;;5.63;;
61978;SDS011;47938;48.176;16.414;2023-01-19T08:26:46;10.13;;;5.60;;
61978;SDS011;47938;48.176;16.414;2023-01-19T08:29:12;7.70;;;5.70;;
61978;SDS011;47938;48.176;16.414;2023-01-19T08:31:38;12.13;;;5.38;;
61978;SDS011;47938;48.176;16.414;2023-01-19T08:34:04;9.57;;;6.18;;
61978;SDS011;47938;48.176;16.414;2023-01-19T08:36:30;10.98;;;6.03;;
61978;SDS011;47938;48.176;16.414;2023-01-19T08:38:56;9.02;;;6.78;;
61978;SDS011;47938;48.176;16.414;2023-01-19T08:41:21;9.05;;;6.25;;
61978;SDS011;47938;48.176;16.414;2023-01-19T08:43:47;8.73;;;5.88;;
61978;SDS011;47938;48.176;16.414;2023-01-19T08:46:13;11.02;;;5.93;;
61978;SDS011;47938;48.176;16.414;2023-01-19T08:48:39;10.63;;;6.03;;
61978;SDS011;47938;48.176;16.414;2023-01-19T08:51:05;14.45;;;7.35;;
61978;SDS011;47938;48.176;16.414;2023-01-19T08:53:30;8.07;;;5.93;;
61978;SDS011;47938;48.176;16.414;2023-01-19T08:55:56;8.98;;;5.78;;
61978;SDS011;47938;48.176;16.414;2023-01-19T08:58:22;7.13;;;5.35;;
61978;SDS011;47938;48.176;16.414;2023-01-19T09:00:48;7.70;;;4.93;;
61978;SDS011;47938;48.176;16.414;2023-01-19T09:03:13;8.93;;;6.07;;
61978;SDS011;47938;48.176;16.414;2023-01-19T09:05:39;8.32;;;5.38;;
61978;SDS011;47938;48.176;16.414;2023-01-19T09:08:06;7.30;;;5.53;;
61978;SDS011;47938;48.176;16.414;2023-01-19T09:10:33;8.60;;;5.40;;
61978;SDS011;47938;48.176;16.414;2023-01-19T09:12:59;10.00;;;5.50;;
61978;SDS011;47938;48.176;16.414;2023-01-19T09:15:25;8.32;;;5.22;;
61978;SDS011;47938;48.176;16.414;2023-01-19T09:17:51;11.20;;;5.30;;
61978;SDS011;47938;48.176;16.414;2023-01-19T09:20:17;8.32;;;5.53;;
61978;SDS011;47938;48.176;16.414;2023-01-19T09:22:42;6.43;;;5.15;;
61978;SDS011;47938;48.176;16.414;2023-01-19T09:25:08;8.60;;;5.13;;
61978;SDS011;47938;48.176;16.414;2023-01-19T09:27:34;6.78;;;4.78;;
61978;SDS011;47938;48.176;16.414;2023-01-19T09:30:00;6.80;;;4.53;;
61978;SDS011;47938;48.176;16.414;2023-01-19T09:32:25;7.15;;;4.00;;
61978;SDS011;47938;48.176;16.414;2023-01-19T09:34:51;5.50;;;4.05;;
61978;SDS011;47938;48.176;16.414;2023-01-19T09:37:17;5.53;;;3.47;;
61978;SDS011;47938;48.176;16.414;2023-01-19T09:39:42;7.53;;;4.20;;
61978;SDS011;47938;48.176;16.414;2023-01-19T09:42:14;8.23;;;4.50;;
61978;SDS011;47938;48.176;16.414;2023-01-19T09:44:57;8.05;;;3.95;;
61978;SDS011;47938;48.176;16.414;2023-01-19T09:47:25;6.45;;;4.25;;
61978;SDS011;47938;48.176;16.414;2023-01-19T09:50:14;5.45;;;4.00;;
61978;SDS011;47938;48.176;16.414;2023-01-19T09:52:46;5.32;;;3.67;;
61978;SDS011;47938;48.176;16.414;2023-01-19T09:55:22;5.68;;;3.97;;
61978;SDS011;47938;48.176;16.414;2023-01-19T09:57:51;5.82;;;4.22;;
61978;SDS011;47938;48.176;16.414;2023-01-19T10:00:17;5.28;;;3.95;;
61978;SDS011;47938;48.176;16.414;2023-01-19T10:02:47;5.72;;;3.75;;
61978;SDS011;47938;48.176;16.414;2023-01-19T10:05:48;7.00;;;4.07;;
61978;SDS011;47938;48.176;16.414;2023-01-19T10:10:56;7.97;;;4.95;;
61978;SDS011;47938;48.176;16.414;2023-01-19T10:18:50;14.20;;;4.57;;
61978;SDS011;47938;48.176;16.414;2023-01-19T10:21:22;6.43;;;4.50;;
61978;SDS011;47938;48.176;16.414;2023-01-19T10:26:24;8.35;;;4.18;;
61978;SDS011;47938;48.176;16.414;2023-01-19T10:31:36;5.45;;;4.47;;
61978;SDS011;47938;48.176;16.414;2023-01-19T10:34:03;9.40;;;4.15;;
61978;SDS011;47938;48.176;16.414;2023-01-19T10:36:36;7.97;;;4.15;;
61978;SDS011;47938;48.176;16.414;2023-01-19T10:39:04;5.10;;;3.88;;
61978;SDS011;47938;48.176;16.414;2023-01-19T10:41:35;6.50;;;4.30;;
61978;SDS011;47938;48.176;16.414;2023-01-19T10:44:03;11.00;;;5.18;;
61978;SDS011;47938;48.176;16.414;2023-01-19T10:49:06;6.28;;;4.65;;
61978;SDS011;47938;48.176;16.414;2023-01-19T10:51:49;7.28;;;5.88;;
61978;SDS011;47938;48.176;16.414;2023-01-19T10:54:16;8.90;;;4.97;;
61978;SDS011;47938;48.176;16.414;2023-01-19T10:56:43;7.50;;;5.05;;
61978;SDS011;47938;48.176;16.414;2023-01-19T10:59:35;10.40;;;5.68;;
61978;SDS011;47938;48.176;16.414;2023-01-19T11:02:15;13.43;;;5.32;;
61978;SDS011;47938;48.176;16.414;2023-01-19T11:04:46;6.88;;;4.40;;
61978;SDS011;47938;48.176;16.414;2023-01-19T11:07:31;11.77;;;5.43;;
61978;SDS011;47938;48.176;16.414;2023-01-19T11:12:41;7.72;;;5.70;;
61978;SDS011;47938;48.176;16.414;2023-01-19T11:15:52;7.05;;;5.18;;
61978;SDS011;47938;48.176;16.414;2023-01-19T11:17:58;5.57;;;4.50;;
61978;SDS011;47938;48.176;16.414;2023-01-19T11:20:38;8.75;;;5.35;;
61978;SDS011;47938;48.176;16.414;2023-01-19T11:23:18;6.88;;;4.60;;
61978;SDS011;47938;48.176;16.414;2023-01-19T11:25:54;7.28;;;4.60;;
61978;SDS011;47938;48.176;16.414;2023-01-19T11:31:18;8.27;;;3.83;;
61978;SDS011;47938;48.176;16.414;2023-01-19T11:33:55;7.35;;;4.65;;
61978;SDS011;47938;48.176;16.414;2023-01-19T11:36:27;5.63;;;4.18;;
61978;SDS011;47938;48.176;16.414;2023-01-19T11:38:58;6.20;;;4.15;;
61978;SDS011;47938;48.176;16.414;2023-01-19T11:41:26;3.67;;;2.85;;
61978;SDS011;47938;48.176;16.414;2023-01-19T11:44:10;5.18;;;3.60;;
61978;SDS011;47938;48.176;16.414;2023-01-19T11:46:44;9.57;;;4.25;;
61978;SDS011;47938;48.176;16.414;2023-01-19T11:49:14;6.97;;;3.90;;
61978;SDS011;47938;48.176;16.414;2023-01-19T11:51:56;18.80;;;4.00;;
61978;SDS011;47938;48.176;16.414;2023-01-19T11:54:45;4.75;;;2.70;;
61978;SDS011;47938;48.176;16.414;2023-01-19T11:57:27;4.78;;;2.85;;
61978;SDS011;47938;48.176;16.414;2023-01-19T11:59:53;10.25;;;3.10;;
61978;SDS011;47938;48.176;16.414;2023-01-19T12:02:22;9.45;;;3.13;;
61978;SDS011;47938;48.176;16.414;2023-01-19T12:05:00;4.18;;;2.85;;
61978;SDS011;47938;48.176;16.414;2023-01-19T12:07:35;7.05;;;2.83;;
61978;SDS011;47938;48.176;16.414;2023-01-19T12:10:06;6.32;;;3.33;;
61978;SDS011;47938;48.176;16.414;2023-01-19T12:12:44;5.20;;;2.90;;
61978;SDS011;47938;48.176;16.414;2023-01-19T12:17:59;6.10;;;3.53;;
61978;SDS011;47938;48.176;16.414;2023-01-19T12:20:36;6.78;;;3.65;;
61978;SDS011;47938;48.176;16.414;2023-01-19T12:28:39;8.43;;;3.38;;
61978;SDS011;47938;48.176;16.414;2023-01-19T12:31:06;5.35;;;3.33;;
61978;SDS011;47938;48.176;16.414;2023-01-19T12:33:34;4.70;;;3.08;;
61978;SDS011;47938;48.176;16.414;2023-01-19T12:36:05;4.20;;;2.35;;
61978;SDS011;47938;48.176;16.414;2023-01-19T12:41:15;4.68;;;3.22;;
61978;SDS011;47938;48.176;16.414;2023-01-19T12:43:43;4.53;;;2.85;;
61978;SDS011;47938;48.176;16.414;2023-01-19T12:51:30;5.20;;;3.47;;
61978;SDS011;47938;48.176;16.414;2023-01-19T12:53:57;4.05;;;2.42;;
61978;SDS011;47938;48.176;16.414;2023-01-19T12:56:27;5.63;;;3.90;;
61978;SDS011;47938;48.176;16.414;2023-01-19T12:58:55;7.35;;;4.10;;
61978;SDS011;47938;48.176;16.414;2023-01-19T13:01:21;6.82;;;3.80;;
61978;SDS011;47938;48.176;16.414;2023-01-19T13:04:00;6.68;;;3.75;;
61978;SDS011;47938;48.176;16.414;2023-01-19T13:14:39;4.60;;;2.83;;
61978;SDS011;47938;48.176;16.414;2023-01-19T13:17:18;4.47;;;3.10;;
61978;SDS011;47938;48.176;16.414;2023-01-19T13:19:53;4.80;;;3.08;;
61978;SDS011;47938;48.176;16.414;2023-01-19T13:25:12;6.35;;;4.00;;
61978;SDS011;47938;48.176;16.414;2023-01-19T13:27:45;5.32;;;4.10;;
61978;SDS011;47938;48.176;16.414;2023-01-19T13:30:13;5.95;;;4.72;;
61978;SDS011;47938;48.176;16.414;2023-01-19T13:32:41;8.55;;;5.50;;
61978;SDS011;47938;48.176;16.414;2023-01-19T13:35:11;9.48;;;6.90;;
61978;SDS011;47938;48.176;16.414;2023-01-19T13:37:42;8.95;;;6.13;;
61978;SDS011;47938;48.176;16.414;2023-01-19T13:40:15;9.63;;;7.25;;
61978;SDS011;47938;48.176;16.414;2023-01-19T13:42:46;11.98;;;8.55;;
61978;SDS011;47938;48.176;16.414;2023-01-19T13:45:17;12.13;;;8.05;;
61978;SDS011;47938;48.176;16.414;2023-01-19T13:47:57;17.17;;;9.27;;
61978;SDS011;47938;48.176;16.414;2023-01-19T13:50:26;12.48;;;8.77;;
61978;SDS011;47938;48.176;16.414;2023-01-19T13:52:53;19.48;;;9.23;;
61978;SDS011;47938;48.176;16.414;2023-01-19T13:55:20;16.15;;;9.70;;
61978;SDS011;47938;48.176;16.414;2023-01-19T13:57:48;19.75;;;9.45;;
61978;SDS011;47938;48.176;16.414;2023-01-19T14:00:16;13.90;;;8.80;;
61978;SDS011;47938;48.176;16.414;2023-01-19T14:02:56;16.85;;;9.05;;
61978;SDS011;47938;48.176;16.414;2023-01-19T14:05:38;16.98;;;8.38;;
61978;SDS011;47938;48.176;16.414;2023-01-19T14:10:37;15.60;;;8.80;;
61978;SDS011;47938;48.176;16.414;2023-01-19T14:13:04;16.98;;;9.65;;
61978;SDS011;47938;48.176;16.414;2023-01-19T14:15:51;14.75;;;8.98;;
61978;SDS011;47938;48.176;16.414;2023-01-19T14:26:03;13.45;;;8.80;;
61978;SDS011;47938;48.176;16.414;2023-01-19T14:28:33;15.02;;;9.32;;
61978;SDS011;47938;48.176;16.414;2023-01-19T14:31:01;15.40;;;9.10;;
61978;SDS011;47938;48.176;16.414;2023-01-19T14:33:41;16.02;;;9.43;;
61978;SDS011;47938;48.176;16.414;2023-01-19T14:36:20;19.15;;;9.13;;
61978;SDS011;47938;48.176;16.414;2023-01-19T14:39:12;12.68;;;8.95;;
61978;SDS011;47938;48.176;16.414;2023-01-19T14:41:44;13.20;;;9.38;;
61978;SDS011;47938;48.176;16.414;2023-01-19T14:44:15;17.55;;;8.57;;
61978;SDS011;47938;48.176;16.414;2023-01-19T14:47:02;20.27;;;11.60;;
61978;SDS011;47938;48.176;16.414;2023-01-19T14:49:30;14.73;;;9.63;;
61978;SDS011;47938;48.176;16.414;2023-01-19T14:52:16;13.27;;;9.32;;
61978;SDS011;47938;48.176;16.414;2023-01-19T14:54:45;15.25;;;10.00;;
61978;SDS011;47938;48.176;16.414;2023-01-19T14:57:12;17.98;;;9.30;;
61978;SDS011;47938;48.176;16.414;2023-01-19T14:59:38;13.82;;;10.27;;
61978;SDS011;47938;48.176;16.414;2023-01-19T15:02:05;12.93;;;10.00;;
61978;SDS011;47938;48.176;16.414;2023-01-19T15:04:30;22.58;;;12.73;;
61978;SDS011;47938;48.176;16.414;2023-01-19T15:06:56;15.38;;;11.30;;
61978;SDS011;47938;48.176;16.414;2023-01-19T15:09:22;15.85;;;10.52;;
61978;SDS011;47938;48.176;16.414;2023-01-19T15:11:48;15.57;;;9.90;;
61978;SDS011;47938;48.176;16.414;2023-01-19T15:14:15;13.90;;;10.20;;
61978;SDS011;47938;48.176;16.414;2023-01-19T15:16:42;14.52;;;9.98;;
61978;SDS011;47938;48.176;16.414;2023-01-19T15:19:09;16.80;;;10.55;;
61978;SDS011;47938;48.176;16.414;2023-01-19T15:21:36;16.75;;;11.38;;
61978;SDS011;47938;48.176;16.414;2023-01-19T15:24:01;16.95;;;10.43;;
61978;SDS011;47938;48.176;16.414;2023-01-19T15:26:27;14.35;;;9.93;;
61978;SDS011;47938;48.176;16.414;2023-01-19T15:28:54;14.05;;;9.90;;
61978;SDS011;47938;48.176;16.414;2023-01-19T15:31:21;14.95;;;9.75;;
61978;SDS011;47938;48.176;16.414;2023-01-19T15:33:48;19.65;;;10.43;;
61978;SDS011;47938;48.176;16.414;2023-01-19T15:36:15;14.77;;;10.40;;
61978;SDS011;47938;48.176;16.414;2023-01-19T15:38:45;23.08;;;11.10;;
61978;SDS011;47938;48.176;16.414;2023-01-19T15:43:37;14.07;;;9.70;;
61978;SDS011;47938;48.176;16.414;2023-01-19T15:46:03;16.05;;;10.00;;
61978;SDS011;47938;48.176;16.414;2023-01-19T15:48:30;17.17;;;9.90;;
61978;SDS011;47938;48.176;16.414;2023-01-19T15:50:55;23.15;;;10.65;;
61978;SDS011;47938;48.176;16.414;2023-01-19T15:53:21;14.80;;;9.95;;
61978;SDS011;47938;48.176;16.414;2023-01-19T15:55:50;13.60;;;10.52;;